Time;durP1;ratioP1;P1;durP2;ratioP2;P2;SDS_P1;SDS_P2;PMS_P1;PMS_P2;Temp;Humidity;BMP_temperature;BMP_pressure;BME280_temperature;BME280_humidity;BME280_pressure;Samples;Min_cycle;Max_cycle;Signal;HPM_P1;HPM_P2
2022/04/05 00:01:39;0.00;0.00;0.62;0.00;0.00;0.62;1.70;1.03;;;20.60;21.90;;;;;;2251492;61;20790;-51
2022/04/05 00:04:24;0.00;0.00;0.62;0.00;0.00;0.62;1.70;1.30;;;20.50;22.00;;;;;;2251579;61;20451;-50
2022/04/05 00:07:08;0.00;0.00;0.62;0.00;0.00;0.62;1.67;1.40;;;20.50;22.20;;;;;;2251853;61;20362;-50
2022/04/05 00:09:55;0.00;0.00;0.62;0.00;0.00;0.62;2.73;1.40;;;20.50;22.20;;;;;;2251587;61;20417;-50
2022/04/05 00:12:40;0.00;0.00;0.62;0.00;0.00;0.62;3.10;1.50;;;20.40;22.30;;;;;;2248399;61;20366;-54
2022/04/05 00:15:25;0.00;0.00;0.62;0.00;0.00;0.62;1.80;1.40;;;20.40;22.40;;;;;;2251614;61;20675;-49
2022/04/05 00:18:10;0.00;0.00;0.62;0.00;0.00;0.62;1.90;1.20;;;20.40;22.50;;;;;;2251514;61;20458;-54
2022/04/05 00:20:54;0.00;0.00;0.62;0.00;0.00;0.62;2.23;1.10;;;20.30;22.50;;;;;;2251898;61;20363;-52
2022/04/05 00:23:39;0.00;0.00;0.62;0.00;0.00;0.62;2.83;1.10;;;20.30;22.50;;;;;;2251245;61;20366;-49
2022/04/05 00:26:25;0.00;0.00;0.62;0.00;0.00;0.62;1.93;1.13;;;20.30;22.60;;;;;;2251666;61;20405;-50
2022/04/05 00:29:11;0.00;0.00;0.62;0.00;0.00;0.62;1.47;1.10;;;20.30;22.60;;;;;;2251258;61;20833;-49
2022/04/05 00:31:56;0.00;0.00;0.62;0.00;0.00;0.62;1.50;1.03;;;20.30;22.60;;;;;;2251648;61;20426;-50
2022/04/05 00:34:41;0.00;0.00;0.62;0.00;0.00;0.62;1.87;1.13;;;20.20;22.50;;;;;;2251477;61;20887;-56
2022/04/05 00:37:25;0.00;0.00;0.62;0.00;0.00;0.62;1.80;1.40;;;20.20;22.70;;;;;;2251242;61;20462;-49
2022/04/05 00:40:11;0.00;0.00;0.62;0.00;0.00;0.62;1.90;1.30;;;20.20;22.80;;;;;;2251825;61;20358;-51
2022/04/05 00:42:58;0.00;0.00;0.62;0.00;0.00;0.62;1.90;1.57;;;20.10;22.90;;;;;;2251374;61;20799;-52
2022/04/05 00:45:43;0.00;0.00;0.62;0.00;0.00;0.62;1.70;1.27;;;20.10;23.10;;;;;;2251563;61;20390;-57
2022/04/05 00:48:35;0.00;0.00;0.62;0.00;0.00;0.62;1.80;1.10;;;20.10;23.20;;;;;;2251515;61;20382;-53
2022/04/05 00:51:22;0.00;0.00;0.62;0.00;0.00;0.62;1.50;1.00;;;20.10;23.30;;;;;;2247760;61;20449;-52
2022/04/05 00:54:10;0.00;0.00;0.62;0.00;0.00;0.62;2.53;1.23;;;20.00;23.30;;;;;;2250460;61;20413;-49
2022/04/05 00:56:57;0.00;0.00;0.62;0.00;0.00;0.62;1.90;1.30;;;20.00;23.30;;;;;;2250814;61;20478;-52
2022/04/05 00:59:46;0.00;0.00;0.62;0.00;0.00;0.62;1.60;1.23;;;20.00;23.30;;;;;;2250442;61;20418;-50
2022/04/05 01:02:36;0.00;0.00;0.62;0.00;0.00;0.62;1.50;1.07;;;19.90;23.30;;;;;;2251784;61;21030;-52
2022/04/05 01:05:22;0.00;0.00;0.62;0.00;0.00;0.62;1.47;1.00;;;19.90;23.40;;;;;;2252202;61;20374;-50
2022/04/05 01:08:08;0.00;0.00;0.62;0.00;0.00;0.62;1.50;1.00;;;19.90;23.30;;;;;;2251786;61;20786;-51
2022/04/05 01:10:54;0.00;0.00;0.62;0.00;0.00;0.62;1.70;1.10;;;19.90;23.30;;;;;;2251035;61;20445;-49
2022/04/05 01:13:39;0.00;0.00;0.62;0.00;0.00;0.62;1.50;1.10;;;19.90;23.40;;;;;;2250866;61;20465;-51
2022/04/05 01:16:26;0.00;0.00;0.62;0.00;0.00;0.62;1.30;0.87;;;19.80;23.40;;;;;;2251902;61;20394;-52
2022/04/05 01:19:10;0.00;0.00;0.62;0.00;0.00;0.62;1.30;0.90;;;19.80;23.40;;;;;;2252016;61;20949;-50
2022/04/05 01:21:55;0.00;0.00;0.62;0.00;0.00;0.62;2.33;1.30;;;19.80;23.40;;;;;;2251986;61;20417;-50
2022/04/05 01:24:41;0.00;0.00;0.62;0.00;0.00;0.62;1.50;0.80;;;19.80;23.50;;;;;;2252146;61;20370;-49
2022/04/05 01:27:27;0.00;0.00;0.62;0.00;0.00;0.62;1.37;0.87;;;19.80;23.70;;;;;;2252478;61;20931;-51
2022/04/05 01:30:13;0.00;0.00;0.62;0.00;0.00;0.62;1.37;0.83;;;19.80;23.60;;;;;;2251913;61;20885;-51
2022/04/05 01:32:59;0.00;0.00;0.62;0.00;0.00;0.62;1.70;0.97;;;19.70;23.60;;;;;;2252072;61;20915;-50
2022/04/05 01:35:44;0.00;0.00;0.62;0.00;0.00;0.62;1.50;0.83;;;19.70;23.60;;;;;;2252465;61;20412;-50
2022/04/05 01:38:28;0.00;0.00;0.62;0.00;0.00;0.62;1.33;0.90;;;19.70;23.70;;;;;;2251741;61;20398;-50
2022/04/05 01:41:14;0.00;0.00;0.62;0.00;0.00;0.62;1.43;0.90;;;19.70;23.80;;;;;;2252038;61;20905;-50
2022/04/05 01:43:59;0.00;0.00;0.62;0.00;0.00;0.62;1.50;0.80;;;19.70;23.70;;;;;;2251898;61;20375;-50
2022/04/05 01:46:43;0.00;0.00;0.62;0.00;0.00;0.62;2.67;0.90;;;19.70;23.70;;;;;;2252110;61;20494;-50
2022/04/05 01:49:27;0.00;0.00;0.62;0.00;0.00;0.62;1.30;0.80;;;19.60;23.70;;;;;;2251925;61;20386;-50
2022/04/05 01:52:12;0.00;0.00;0.62;0.00;0.00;0.62;1.63;0.80;;;19.60;23.70;;;;;;2251850;61;20437;-50
2022/04/05 01:54:57;0.00;0.00;0.62;0.00;0.00;0.62;1.60;0.73;;;19.60;23.70;;;;;;2251831;61;20835;-50
2022/04/05 01:57:43;0.00;0.00;0.62;0.00;0.00;0.62;2.50;0.80;;;19.60;23.70;;;;;;2252270;61;20429;-50
2022/04/05 02:00:27;0.00;0.00;0.62;0.00;0.00;0.62;1.20;0.70;;;19.60;23.70;;;;;;2252277;61;20375;-54
2022/04/05 02:03:12;0.00;0.00;0.62;0.00;0.00;0.62;1.30;0.80;;;19.60;23.70;;;;;;2248633;61;20463;-48
2022/04/05 02:05:56;0.00;0.00;0.62;0.00;0.00;0.62;1.30;0.73;;;19.60;23.80;;;;;;2252056;61;20371;-50
2022/04/05 02:08:43;0.00;0.00;0.62;0.00;0.00;0.62;1.70;0.80;;;19.60;23.80;;;;;;2251785;61;20418;-50
2022/04/05 02:11:28;0.00;0.00;0.62;0.00;0.00;0.62;1.27;0.70;;;19.60;23.90;;;;;;2248612;61;20359;-51
2022/04/05 02:14:20;0.00;0.00;0.62;0.00;0.00;0.62;1.90;1.00;;;19.50;23.90;;;;;;2248400;61;20935;-50
2022/04/05 02:17:07;0.00;0.00;0.62;0.00;0.00;0.62;1.73;1.00;;;19.50;23.90;;;;;;2248741;61;20418;-54
2022/04/05 02:19:55;0.00;0.00;0.62;0.00;0.00;0.62;1.50;0.83;;;19.50;23.90;;;;;;2248666;61;20406;-54
2022/04/05 02:22:41;0.00;0.00;0.62;0.00;0.00;0.62;2.80;0.90;;;19.50;23.90;;;;;;2248734;61;20419;-53
2022/04/05 02:25:35;0.00;0.00;0.62;0.00;0.00;0.62;1.57;0.80;;;19.50;23.90;;;;;;2248628;61;20450;-52
2022/04/05 02:28:22;0.00;0.00;0.62;0.00;0.00;0.62;1.20;0.70;;;19.50;24.00;;;;;;2248155;61;20463;-50
2022/04/05 02:31:12;0.00;0.00;0.62;0.00;0.00;0.62;1.83;0.90;;;19.40;24.00;;;;;;2248881;61;20367;-53
2022/04/05 02:33:58;0.00;0.00;0.62;0.00;0.00;0.62;1.40;0.80;;;19.40;24.00;;;;;;2251976;61;20378;-48
2022/04/05 02:36:53;0.00;0.00;0.62;0.00;0.00;0.62;1.20;0.60;;;19.40;24.00;;;;;;2248463;61;20926;-52
2022/04/05 02:39:38;0.00;0.00;0.62;0.00;0.00;0.62;1.70;0.80;;;19.40;23.90;;;;;;2251515;61;20398;-50
2022/04/05 02:42:24;0.00;0.00;0.62;0.00;0.00;0.62;1.23;0.70;;;19.40;23.90;;;;;;2248444;61;20379;-52
2022/04/05 02:45:09;0.00;0.00;0.62;0.00;0.00;0.62;1.70;0.90;;;19.40;24.00;;;;;;2251830;61;20422;-49
2022/04/05 02:47:57;0.00;0.00;0.62;0.00;0.00;0.62;1.30;0.80;;;19.40;24.00;;;;;;2248307;61;20785;-49
2022/04/05 02:50:43;0.00;0.00;0.62;0.00;0.00;0.62;1.40;0.80;;;19.40;24.00;;;;;;2248351;61;20463;-49
2022/04/05 02:53:28;0.00;0.00;0.62;0.00;0.00;0.62;1.97;1.07;;;19.40;24.10;;;;;;2248819;61;20430;-52
2022/04/05 02:56:13;0.00;0.00;0.62;0.00;0.00;0.62;1.63;0.90;;;19.40;24.20;;;;;;2251887;61;21006;-53
2022/04/05 02:59:00;0.00;0.00;0.62;0.00;0.00;0.62;1.60;0.90;;;19.40;24.10;;;;;;2248239;61;20395;-49
2022/04/05 03:01:45;0.00;0.00;0.62;0.00;0.00;0.62;1.30;0.70;;;19.40;24.10;;;;;;2245723;61;20452;-54
2022/04/05 03:04:36;0.00;0.00;0.62;0.00;0.00;0.62;1.10;0.60;;;19.40;24.10;;;;;;2248526;61;20366;-50
2022/04/05 03:07:21;0.00;0.00;0.62;0.00;0.00;0.62;1.30;0.70;;;19.40;24.00;;;;;;2248042;61;20771;-49
2022/04/05 03:10:10;0.00;0.00;0.62;0.00;0.00;0.62;1.87;1.00;;;19.40;24.00;;;;;;2248669;61;20370;-54
2022/04/05 03:12:57;0.00;0.00;0.62;0.00;0.00;0.62;1.60;0.90;;;19.40;24.00;;;;;;2248221;61;20429;-50
2022/04/05 03:15:42;0.00;0.00;0.62;0.00;0.00;0.62;1.60;0.90;;;19.40;24.10;;;;;;2248638;61;20417;-50
2022/04/05 03:18:28;0.00;0.00;0.62;0.00;0.00;0.62;1.63;0.80;;;19.40;24.00;;;;;;2248320;61;21182;-49
2022/04/05 03:21:14;0.00;0.00;0.62;0.00;0.00;0.62;1.57;0.83;;;19.40;24.00;;;;;;2251521;61;20946;-55
2022/04/05 03:23:58;0.00;0.00;0.62;0.00;0.00;0.62;1.20;0.70;;;19.40;24.00;;;;;;2247759;61;20394;-54
2022/04/05 03:26:43;0.00;0.00;0.62;0.00;0.00;0.62;1.77;0.70;;;19.40;23.90;;;;;;2248467;61;20363;-59
2022/04/05 03:29:28;0.00;0.00;0.62;0.00;0.00;0.62;1.50;0.87;;;19.40;23.90;;;;;;2248283;61;20379;-52
2022/04/05 03:32:13;0.00;0.00;0.62;0.00;0.00;0.62;1.80;0.67;;;19.40;23.90;;;;;;2251499;61;20390;-50
2022/04/05 03:34:58;0.00;0.00;0.62;0.00;0.00;0.62;1.40;0.80;;;19.40;23.80;;;;;;2247228;61;20780;-52
2022/04/05 03:37:46;0.00;0.00;0.62;0.00;0.00;0.62;1.40;0.80;;;19.40;23.90;;;;;;2246855;61;20902;-58
2022/04/05 03:40:32;0.00;0.00;0.62;0.00;0.00;0.62;2.60;0.80;;;19.40;23.80;;;;;;2247005;61;20425;-50
2022/04/05 03:43:19;0.00;0.00;0.62;0.00;0.00;0.62;1.87;0.80;;;19.40;23.90;;;;;;2246403;61;20367;-50
2022/04/05 03:46:07;0.00;0.00;0.62;0.00;0.00;0.62;1.60;0.90;;;19.40;23.90;;;;;;2247202;61;20429;-54
2022/04/05 03:48:52;0.00;0.00;0.62;0.00;0.00;0.62;1.87;0.90;;;19.40;23.90;;;;;;2247458;61;20823;-56
2022/04/05 03:51:38;0.00;0.00;0.62;0.00;0.00;0.62;1.90;0.80;;;19.40;23.90;;;;;;2247503;61;20410;-47
2022/04/05 03:54:25;0.00;0.00;0.62;0.00;0.00;0.62;1.60;0.80;;;19.40;23.90;;;;;;2247280;61;20386;-50
2022/04/05 03:57:16;0.00;0.00;0.62;0.00;0.00;0.62;2.40;1.00;;;19.40;23.90;;;;;;2249782;61;20443;-52
2022/04/05 04:00:01;0.00;0.00;0.62;0.00;0.00;0.62;1.60;0.80;;;19.40;23.90;;;;;;2246979;61;20406;-54
2022/04/05 04:02:48;0.00;0.00;0.62;0.00;0.00;0.62;1.40;0.83;;;19.50;23.90;;;;;;2250656;61;20394;-53
2022/04/05 04:05:33;0.00;0.00;0.62;0.00;0.00;0.62;1.60;0.90;;;19.40;24.00;;;;;;2250778;61;20870;-51
2022/04/05 04:08:19;0.00;0.00;0.62;0.00;0.00;0.62;1.20;0.70;;;19.50;23.80;;;;;;2246817;61;20430;-50
2022/04/05 04:11:06;0.00;0.00;0.62;0.00;0.00;0.62;1.47;0.90;;;19.50;23.80;;;;;;2246901;61;20422;-51
2022/04/05 04:13:51;0.00;0.00;0.62;0.00;0.00;0.62;1.60;0.90;;;19.50;23.80;;;;;;2250024;61;20837;-53
2022/04/05 04:16:40;0.00;0.00;0.62;0.00;0.00;0.62;1.40;0.87;;;19.50;23.80;;;;;;2248400;61;20926;-50
2022/04/05 04:19:25;0.00;0.00;0.62;0.00;0.00;0.62;2.23;1.00;;;19.50;23.80;;;;;;2247963;61;20371;-50
2022/04/05 04:22:10;0.00;0.00;0.62;0.00;0.00;0.62;1.40;0.77;;;19.50;23.80;;;;;;2248308;61;20371;-50
2022/04/05 04:24:57;0.00;0.00;0.62;0.00;0.00;0.62;1.83;0.80;;;19.50;23.80;;;;;;2248583;61;20383;-50
2022/04/05 04:27:44;0.00;0.00;0.62;0.00;0.00;0.62;1.73;0.80;;;19.50;23.80;;;;;;2247997;61;20962;-54
2022/04/05 04:30:29;0.00;0.00;0.62;0.00;0.00;0.62;1.63;0.90;;;19.50;23.90;;;;;;2251658;61;20421;-50
2022/04/05 04:33:13;0.00;0.00;0.62;0.00;0.00;0.62;2.03;0.90;;;19.50;23.90;;;;;;2248259;61;20731;-52
2022/04/05 04:35:58;0.00;0.00;0.62;0.00;0.00;0.62;2.20;0.90;;;19.50;23.90;;;;;;2251535;61;20449;-55
2022/04/05 04:38:42;0.00;0.00;0.62;0.00;0.00;0.62;1.57;0.83;;;19.50;23.90;;;;;;2248918;61;20437;-52
2022/04/05 04:41:27;0.00;0.00;0.62;0.00;0.00;0.62;1.40;0.80;;;19.50;23.90;;;;;;2251772;61;20840;-51
2022/04/05 04:44:13;0.00;0.00;0.62;0.00;0.00;0.62;2.37;0.80;;;19.50;23.80;;;;;;2252392;61;20764;-52
2022/04/05 04:46:58;0.00;0.00;0.62;0.00;0.00;0.62;1.53;0.70;;;19.50;23.80;;;;;;2252342;61;20398;-56
2022/04/05 04:49:43;0.00;0.00;0.62;0.00;0.00;0.62;1.53;0.70;;;19.50;23.80;;;;;;2251744;61;20808;-53
2022/04/05 04:52:27;0.00;0.00;0.62;0.00;0.00;0.62;1.43;0.80;;;19.50;23.80;;;;;;2248914;61;20489;-53
2022/04/05 04:55:12;0.00;0.00;0.62;0.00;0.00;0.62;1.67;0.90;;;19.60;24.20;;;;;;2252272;61;20413;-53
2022/04/05 04:57:57;0.00;0.00;0.62;0.00;0.00;0.62;2.57;1.03;;;19.60;23.80;;;;;;2252069;61;20976;-52
2022/04/05 05:00:44;0.00;0.00;0.62;0.00;0.00;0.62;1.40;0.70;;;19.60;23.80;;;;;;2252093;61;20417;-50
2022/04/05 05:03:28;0.00;0.00;0.62;0.00;0.00;0.62;2.40;0.70;;;19.60;23.70;;;;;;2251989;61;20371;-53
2022/04/05 05:06:13;0.00;0.00;0.62;0.00;0.00;0.62;1.50;0.93;;;19.60;23.70;;;;;;2252224;61;20437;-53
2022/04/05 05:08:57;0.00;0.00;0.62;0.00;0.00;0.62;1.60;0.80;;;19.60;23.70;;;;;;2251926;61;20479;-53
2022/04/05 05:11:42;0.00;0.00;0.62;0.00;0.00;0.62;4.40;1.03;;;19.60;23.70;;;;;;2251746;61;20366;-54
2022/04/05 05:14:30;0.00;0.00;0.62;0.00;0.00;0.62;4.23;0.97;;;19.60;23.70;;;;;;2252131;61;20375;-53
2022/04/05 05:17:16;0.00;0.00;0.62;0.00;0.00;0.62;1.73;0.97;;;19.60;23.70;;;;;;2252325;61;20362;-54
2022/04/05 05:20:00;0.00;0.00;0.62;0.00;0.00;0.62;1.70;0.80;;;19.60;23.70;;;;;;2251989;61;20815;-50
2022/04/05 05:22:45;0.00;0.00;0.62;0.00;0.00;0.62;3.33;1.13;;;19.60;23.70;;;;;;2251873;61;20417;-51
2022/04/05 05:25:30;0.00;0.00;0.62;0.00;0.00;0.62;1.87;0.90;;;19.60;23.70;;;;;;2252103;61;20879;-53
2022/04/05 05:28:15;0.00;0.00;0.62;0.00;0.00;0.62;1.50;0.80;;;19.60;23.70;;;;;;2251872;61;20402;-53
2022/04/05 05:31:00;0.00;0.00;0.62;0.00;0.00;0.62;2.00;0.80;;;19.60;23.60;;;;;;2252107;61;20362;-55
2022/04/05 05:33:45;0.00;0.00;0.62;0.00;0.00;0.62;2.17;0.90;;;19.60;23.60;;;;;;2251625;61;20367;-53
2022/04/05 05:36:30;0.00;0.00;0.62;0.00;0.00;0.62;3.90;1.40;;;19.70;23.70;;;;;;2252103;61;20397;-52
2022/04/05 05:39:15;0.00;0.00;0.62;0.00;0.00;0.62;2.57;1.33;;;19.70;23.70;;;;;;2251979;61;20402;-55
2022/04/05 05:41:59;0.00;0.00;0.62;0.00;0.00;0.62;3.50;1.00;;;19.70;23.60;;;;;;2251565;61;20374;-50
2022/04/05 05:44:44;0.00;0.00;0.62;0.00;0.00;0.62;4.27;1.30;;;19.70;23.60;;;;;;2251877;61;20363;-54
2022/04/05 05:47:29;0.00;0.00;0.62;0.00;0.00;0.62;1.40;0.80;;;19.70;23.60;;;;;;2251966;61;20363;-54
2022/04/05 05:50:15;0.00;0.00;0.62;0.00;0.00;0.62;1.70;0.90;;;19.70;23.60;;;;;;2251697;61;20385;-56
2022/04/05 05:53:00;0.00;0.00;0.62;0.00;0.00;0.62;2.00;0.90;;;19.70;23.60;;;;;;2252214;61;20374;-51
2022/04/05 05:55:46;0.00;0.00;0.62;0.00;0.00;0.62;1.80;0.80;;;19.80;23.60;;;;;;2251754;61;20406;-53
2022/04/05 05:58:31;0.00;0.00;0.62;0.00;0.00;0.62;2.73;1.03;;;19.80;23.70;;;;;;2251537;61;20950;-52
2022/04/05 06:01:16;0.00;0.00;0.62;0.00;0.00;0.62;2.23;1.17;;;19.70;23.60;;;;;;2252451;61;20838;-54
2022/04/05 06:04:00;0.00;0.00;0.62;0.00;0.00;0.62;3.50;1.60;;;19.80;23.60;;;;;;2251692;61;20363;-56
2022/04/05 06:06:46;0.00;0.00;0.62;0.00;0.00;0.62;2.03;0.80;;;19.80;23.60;;;;;;2252302;61;20434;-54
2022/04/05 06:09:31;0.00;0.00;0.62;0.00;0.00;0.62;1.70;1.03;;;19.80;23.60;;;;;;2248711;61;20855;-54
2022/04/05 06:12:15;0.00;0.00;0.62;0.00;0.00;0.62;1.87;1.53;;;19.80;23.60;;;;;;2251767;61;20370;-57
2022/04/05 06:15:00;0.00;0.00;0.62;0.00;0.00;0.62;2.53;1.00;;;19.80;23.60;;;;;;2252231;61;20382;-57
2022/04/05 06:17:47;0.00;0.00;0.62;0.00;0.00;0.62;2.17;1.10;;;19.90;23.70;;;;;;2251569;61;20394;-53
2022/04/05 06:20:31;0.00;0.00;0.62;0.00;0.00;0.62;3.07;1.00;;;19.90;23.70;;;;;;2252052;61;20452;-56
2022/04/05 06:23:17;0.00;0.00;0.62;0.00;0.00;0.62;2.03;1.00;;;19.90;23.70;;;;;;2252104;61;20378;-57
2022/04/05 06:26:02;0.00;0.00;0.62;0.00;0.00;0.62;3.87;1.83;;;19.90;23.60;;;;;;2251803;61;20371;-54
2022/04/05 06:28:46;0.00;0.00;0.62;0.00;0.00;0.62;3.60;1.00;;;19.90;23.70;;;;;;2251627;61;21022;-54
2022/04/05 06:31:31;0.00;0.00;0.62;0.00;0.00;0.62;1.60;1.00;;;19.90;23.70;;;;;;2249515;61;21293;-57
2022/04/05 06:34:15;0.00;0.00;0.62;0.00;0.00;0.62;2.10;1.00;;;19.90;23.60;;;;;;2252433;61;20434;-57
2022/04/05 06:36:59;0.00;0.00;0.62;0.00;0.00;0.62;2.20;1.00;;;19.90;23.60;;;;;;2252827;61;20371;-54
2022/04/05 06:39:46;0.00;0.00;0.62;0.00;0.00;0.62;2.70;1.33;;;19.90;23.60;;;;;;2253020;61;20366;-54
2022/04/05 06:42:30;0.00;0.00;0.62;0.00;0.00;0.62;3.20;1.20;;;19.90;23.60;;;;;;2251825;61;20373;-50
2022/04/05 06:45:21;0.00;0.00;0.62;0.00;0.00;0.62;3.93;1.00;;;19.90;23.60;;;;;;2251198;61;20918;-49
2022/04/05 06:48:09;0.00;0.00;0.62;0.00;0.00;0.62;3.50;1.10;;;19.90;23.60;;;;;;2250567;61;20445;-50
2022/04/05 06:50:53;0.00;0.00;0.62;0.00;0.00;0.62;3.00;1.10;;;20.00;23.70;;;;;;2250991;61;20366;-53
2022/04/05 06:53:38;0.00;0.00;0.62;0.00;0.00;0.62;1.87;1.03;;;20.00;23.70;;;;;;2251206;61;20394;-52
2022/04/05 06:56:26;0.00;0.00;0.62;0.00;0.00;0.62;2.60;1.20;;;20.00;23.70;;;;;;2250530;61;20402;-52
2022/04/05 06:59:11;0.00;0.00;0.62;0.00;0.00;0.62;2.23;1.17;;;20.00;23.60;;;;;;2250330;61;20457;-52
2022/04/05 07:01:56;0.00;0.00;0.62;0.00;0.00;0.62;1.40;1.00;;;20.00;23.60;;;;;;2250419;61;20398;-55
2022/04/05 07:04:40;0.00;0.00;0.62;0.00;0.00;0.62;2.93;1.10;;;20.00;23.60;;;;;;2251085;61;20887;-51
2022/04/05 07:07:25;0.00;0.00;0.62;0.00;0.00;0.62;2.77;1.00;;;20.00;23.60;;;;;;2250512;61;20359;-51
2022/04/05 07:10:12;0.00;0.00;0.62;0.00;0.00;0.62;1.83;1.07;;;20.00;23.60;;;;;;2250518;61;20478;-49
2022/04/05 07:12:58;0.00;0.00;0.62;0.00;0.00;0.62;2.87;1.10;;;20.00;23.60;;;;;;2250850;61;20371;-49
2022/04/05 07:15:43;0.00;0.00;0.62;0.00;0.00;0.62;4.07;1.27;;;20.00;23.60;;;;;;2250516;61;20402;-52
2022/04/05 07:18:27;0.00;0.00;0.62;0.00;0.00;0.62;6.33;1.60;;;20.00;23.60;;;;;;2250497;61;20402;-50
2022/04/05 07:21:12;0.00;0.00;0.62;0.00;0.00;0.62;1.93;1.20;;;20.00;23.60;;;;;;2251065;61;20527;-52
2022/04/05 07:23:57;0.00;0.00;0.62;0.00;0.00;0.62;2.73;1.33;;;20.10;23.70;;;;;;2250583;61;20442;-55
2022/04/05 07:26:41;0.00;0.00;0.62;0.00;0.00;0.62;2.53;1.30;;;20.10;23.60;;;;;;2251265;61;20662;-53
2022/04/05 07:29:27;0.00;0.00;0.62;0.00;0.00;0.62;2.77;1.63;;;20.10;23.60;;;;;;2251321;61;20382;-55
2022/04/05 07:32:12;0.00;0.00;0.62;0.00;0.00;0.62;2.40;1.10;;;20.10;23.60;;;;;;2251337;61;20871;-53
2022/04/05 07:34:56;0.00;0.00;0.62;0.00;0.00;0.62;1.83;0.90;;;20.10;23.60;;;;;;2251039;61;20402;-51
2022/04/05 07:37:41;0.00;0.00;0.62;0.00;0.00;0.62;2.07;1.10;;;20.10;23.60;;;;;;2251753;61;20399;-52
2022/04/05 07:40:47;0.00;0.00;0.62;0.00;0.00;0.62;2.20;1.00;;;20.10;23.60;;;;;;2251607;61;20359;-51
2022/04/05 07:43:33;0.00;0.00;0.62;0.00;0.00;0.62;1.87;1.00;;;20.10;23.60;;;;;;2251248;61;20761;-51
2022/04/05 07:46:19;0.00;0.00;0.62;0.00;0.00;0.62;1.47;0.77;;;20.10;23.60;;;;;;2249308;61;20370;-54
2022/04/05 07:49:04;0.00;0.00;0.62;0.00;0.00;0.62;1.30;0.70;;;20.10;23.60;;;;;;2251867;61;20527;-49
2022/04/05 07:51:49;0.00;0.00;0.62;0.00;0.00;0.62;3.83;1.10;;;20.10;23.50;;;;;;2251655;61;20458;-53
2022/04/05 07:54:33;0.00;0.00;0.62;0.00;0.00;0.62;2.40;0.93;;;20.10;23.60;;;;;;2251650;61;20371;-50
2022/04/05 07:57:18;0.00;0.00;0.62;0.00;0.00;0.62;4.00;1.13;;;20.10;23.50;;;;;;2251188;61;20778;-51
2022/04/05 08:00:05;0.00;0.00;0.62;0.00;0.00;0.62;2.10;1.07;;;20.10;23.50;;;;;;2251786;61;20769;-49
2022/04/05 08:02:58;0.00;0.00;0.62;0.00;0.00;0.62;2.07;1.10;;;20.10;23.60;;;;;;2251733;61;20371;-48
2022/04/05 08:05:43;0.00;0.00;0.62;0.00;0.00;0.62;2.77;1.10;;;20.10;23.50;;;;;;2251680;61;20375;-52
2022/04/05 08:08:28;0.00;0.00;0.62;0.00;0.00;0.62;4.20;0.90;;;20.20;23.60;;;;;;2251593;61;20386;-50
2022/04/05 08:11:13;0.00;0.00;0.62;0.00;0.00;0.62;1.40;0.70;;;20.20;23.60;;;;;;2248981;61;20362;-54
2022/04/05 08:13:58;0.00;0.00;0.62;0.00;0.00;0.62;3.80;1.70;;;20.20;23.60;;;;;;2252204;61;20941;-55
2022/04/05 08:16:42;0.00;0.00;0.62;0.00;0.00;0.62;2.00;1.00;;;20.20;23.60;;;;;;2252422;61;20983;-60
2022/04/05 08:19:28;0.00;0.00;0.62;0.00;0.00;0.62;2.47;1.10;;;20.10;23.50;;;;;;2251283;61;20498;-60
2022/04/05 08:22:13;0.00;0.00;0.62;0.00;0.00;0.62;1.93;1.27;;;20.20;23.60;;;;;;2249343;61;20430;-59
2022/04/05 08:24:58;0.00;0.00;0.62;0.00;0.00;0.62;5.30;1.03;;;20.10;23.50;;;;;;2247762;61;20375;-61
2022/04/05 08:27:44;0.00;0.00;0.62;0.00;0.00;0.62;1.80;1.00;;;20.10;23.60;;;;;;2247905;61;20380;-57
2022/04/05 08:30:29;0.00;0.00;0.62;0.00;0.00;0.62;2.60;1.13;;;20.20;23.70;;;;;;2247724;61;20434;-55
2022/04/05 08:33:13;0.00;0.00;0.62;0.00;0.00;0.62;1.53;0.97;;;20.10;23.60;;;;;;2248144;61;20770;-53
2022/04/05 08:35:59;0.00;0.00;0.62;0.00;0.00;0.62;1.63;0.80;;;20.10;23.60;;;;;;2247787;61;20423;-57
2022/04/05 08:38:44;0.00;0.00;0.62;0.00;0.00;0.62;2.27;0.87;;;20.10;23.60;;;;;;2247241;61;20519;-50
2022/04/05 08:41:32;0.00;0.00;0.62;0.00;0.00;0.62;2.10;1.10;;;20.20;23.70;;;;;;2247715;61;20363;-58
2022/04/05 08:44:18;0.00;0.00;0.62;0.00;0.00;0.62;1.80;1.20;;;20.20;23.70;;;;;;2248328;61;20368;-58
2022/04/05 08:47:04;0.00;0.00;0.62;0.00;0.00;0.62;3.40;1.40;;;20.20;23.70;;;;;;2244346;61;20772;-58
2022/04/05 08:49:49;0.00;0.00;0.62;0.00;0.00;0.62;3.00;1.10;;;20.20;23.70;;;;;;2247491;61;20372;-57
2022/04/05 08:52:36;0.00;0.00;0.62;0.00;0.00;0.62;2.53;1.30;;;20.20;23.70;;;;;;2247692;61;20468;-55
2022/04/05 08:55:22;0.00;0.00;0.62;0.00;0.00;0.62;3.33;1.03;;;20.20;23.70;;;;;;2246990;61;20825;-55
2022/04/05 08:58:07;0.00;0.00;0.62;0.00;0.00;0.62;3.70;1.10;;;20.20;23.70;;;;;;2244482;61;20543;-51
2022/04/05 09:00:53;0.00;0.00;0.62;0.00;0.00;0.62;2.70;1.10;;;20.20;23.70;;;;;;2247583;61;20372;-59
2022/04/05 09:03:38;0.00;0.00;0.62;0.00;0.00;0.62;3.43;1.27;;;20.20;23.70;;;;;;2247355;61;20423;-57
2022/04/05 09:06:31;0.00;0.00;0.62;0.00;0.00;0.62;1.37;0.90;;;20.20;23.70;;;;;;2246963;61;20375;-50
2022/04/05 09:09:18;0.00;0.00;0.62;0.00;0.00;0.62;2.50;1.00;;;20.20;23.70;;;;;;2246621;61;20960;-53
2022/04/05 09:12:15;0.00;0.00;0.62;0.00;0.00;0.62;2.10;1.00;;;20.20;23.70;;;;;;2246833;61;20371;-53
2022/04/05 09:15:00;0.00;0.00;0.62;0.00;0.00;0.62;3.60;1.53;;;20.30;23.70;;;;;;2246669;61;20452;-56
2022/04/05 09:17:47;0.00;0.00;0.62;0.00;0.00;0.62;4.00;1.47;;;20.30;23.70;;;;;;2247122;61;20437;-51
2022/04/05 09:20:44;0.00;0.00;0.62;0.00;0.00;0.62;2.03;1.00;;;20.30;23.80;;;;;;2247499;61;20828;-52
2022/04/05 09:23:38;0.00;0.00;0.62;0.00;0.00;0.62;3.50;1.30;;;20.30;23.80;;;;;;2244517;61;20359;-55
2022/04/05 09:26:26;0.00;0.00;0.62;0.00;0.00;0.62;2.43;1.00;;;20.30;23.80;;;;;;2247741;61;20423;-59
2022/04/05 09:29:11;0.00;0.00;0.62;0.00;0.00;0.62;2.40;0.93;;;20.30;23.80;;;;;;2248067;61;20388;-54
2022/04/05 09:31:56;0.00;0.00;0.62;0.00;0.00;0.62;1.90;1.10;;;20.30;23.80;;;;;;2247972;61;20406;-53
2022/04/05 09:34:48;0.00;0.00;0.62;0.00;0.00;0.62;3.97;1.50;;;20.30;23.80;;;;;;2248344;61;20907;-52
2022/04/05 09:37:38;0.00;0.00;0.62;0.00;0.00;0.62;2.43;1.00;;;20.30;23.80;;;;;;2247250;61;20847;-56
2022/04/05 09:40:31;0.00;0.00;0.62;0.00;0.00;0.62;3.63;1.23;;;20.30;23.70;;;;;;2245113;61;20458;-56
2022/04/05 09:43:18;0.00;0.00;0.62;0.00;0.00;0.62;4.67;1.20;;;20.30;23.80;;;;;;2248192;61;20775;-51
2022/04/05 09:46:05;0.00;0.00;0.62;0.00;0.00;0.62;1.93;1.10;;;20.30;23.80;;;;;;2248113;61;20379;-55
2022/04/05 09:49:03;0.00;0.00;0.62;0.00;0.00;0.62;2.10;1.20;;;20.30;23.80;;;;;;2244712;61;20448;-55
2022/04/05 09:51:48;0.00;0.00;0.62;0.00;0.00;0.62;1.67;0.90;;;20.30;23.80;;;;;;2248066;61;20372;-52
2022/04/05 09:54:34;0.00;0.00;0.62;0.00;0.00;0.62;2.17;1.20;;;20.30;23.80;;;;;;2248376;61;20364;-54
2022/04/05 09:57:29;0.00;0.00;0.62;0.00;0.00;0.62;4.23;0.87;;;20.30;23.80;;;;;;2244966;61;20435;-60
2022/04/05 10:00:19;0.00;0.00;0.62;0.00;0.00;0.62;1.97;0.97;;;20.30;23.80;;;;;;2247940;61;20367;-58
2022/04/05 10:03:06;0.00;0.00;0.62;0.00;0.00;0.62;2.27;1.10;;;20.30;23.80;;;;;;2247940;61;20371;-57
2022/04/05 10:05:53;0.00;0.00;0.62;0.00;0.00;0.62;2.23;0.90;;;20.40;23.90;;;;;;2248538;61;20403;-51
2022/04/05 10:08:39;0.00;0.00;0.62;0.00;0.00;0.62;1.50;0.80;;;20.40;23.90;;;;;;2247815;61;20388;-54
2022/04/05 10:11:26;0.00;0.00;0.62;0.00;0.00;0.62;1.80;1.07;;;20.40;23.90;;;;;;2248043;61;20438;-59
2022/04/05 10:14:14;0.00;0.00;0.62;0.00;0.00;0.62;2.30;0.90;;;20.40;23.90;;;;;;2248171;61;20371;-57
2022/04/05 10:17:01;0.00;0.00;0.62;0.00;0.00;0.62;2.53;1.10;;;20.50;23.90;;;;;;2248152;61;20371;-62
2022/04/05 10:19:49;0.00;0.00;0.62;0.00;0.00;0.62;2.07;0.90;;;20.50;23.90;;;;;;2247726;61;20928;-62
2022/04/05 10:22:34;0.00;0.00;0.62;0.00;0.00;0.62;2.10;0.90;;;20.50;23.90;;;;;;2248025;61;20363;-61
2022/04/05 10:25:21;0.00;0.00;0.62;0.00;0.00;0.62;2.00;1.30;;;20.60;23.90;;;;;;2247991;61;20371;-62
2022/04/05 10:28:06;0.00;0.00;0.62;0.00;0.00;0.62;2.20;1.40;;;20.60;23.90;;;;;;2248195;61;20376;-57
2022/04/05 10:31:01;0.00;0.00;0.62;0.00;0.00;0.62;1.50;0.83;;;20.60;23.90;;;;;;2248141;61;20360;-55
2022/04/05 10:34:01;0.00;0.00;0.62;0.00;0.00;0.62;1.93;0.90;;;20.60;23.80;;;;;;2247854;61;20415;-58
2022/04/05 10:37:10;0.00;0.00;0.62;0.00;0.00;0.62;1.50;0.90;;;20.70;23.90;;;;;;2247989;61;20363;-63
2022/04/05 10:40:15;0.00;0.00;0.62;0.00;0.00;0.62;1.33;0.73;;;20.70;24.40;;;;;;2247624;61;20395;-59
2022/04/05 10:43:15;0.00;0.00;0.62;0.00;0.00;0.62;1.57;0.80;;;20.70;23.90;;;;;;2248152;61;20444;-56
2022/04/05 10:46:00;0.00;0.00;0.62;0.00;0.00;0.62;1.80;0.97;;;20.70;23.90;;;;;;2247803;61;20419;-60
2022/04/05 10:48:56;0.00;0.00;0.62;0.00;0.00;0.62;2.03;0.87;;;20.80;23.90;;;;;;2247728;61;20383;-55
2022/04/05 10:52:07;0.00;0.00;0.62;0.00;0.00;0.62;2.20;0.93;;;20.80;23.90;;;;;;2247780;61;20376;-59
2022/04/05 10:55:06;0.00;0.00;0.62;0.00;0.00;0.62;1.50;0.80;;;20.80;23.90;;;;;;2247886;61;20359;-59
2022/04/05 10:58:08;0.00;0.00;0.62;0.00;0.00;0.62;1.70;0.70;;;20.80;23.90;;;;;;2248010;61;20928;-61